createdAt,value
2018-03-31T00:01:29.697Z,5.97
2018-03-31T00:03:56.756Z,6.50
2018-03-31T00:06:23.803Z,16.40
2018-03-31T00:08:50.888Z,5.40
2018-03-31T00:11:17.952Z,11.63
2018-03-31T00:13:45.034Z,7.20
2018-03-31T00:16:12.085Z,4.90
2018-03-31T00:18:39.141Z,5.03
2018-03-31T00:21:06.229Z,5.30
2018-03-31T00:23:33.276Z,7.70
2018-03-31T00:26:00.548Z,6.87
2018-03-31T00:28:27.600Z,5.60
2018-03-31T00:30:54.647Z,9.90
2018-03-31T00:33:21.720Z,4.70
2018-03-31T00:35:48.781Z,5.03
2018-03-31T00:38:15.850Z,4.60
2018-03-31T00:40:42.909Z,5.80
2018-03-31T00:43:09.988Z,7.53
2018-03-31T00:45:37.057Z,6.83
2018-03-31T00:48:04.103Z,7.40
2018-03-31T00:50:31.177Z,7.83
2018-03-31T00:52:58.235Z,5.67
2018-03-31T00:55:25.381Z,6.40
2018-03-31T00:57:52.398Z,8.17
2018-03-31T01:00:19.444Z,9.70
2018-03-31T01:02:46.516Z,4.93
2018-03-31T01:05:13.565Z,10.47
2018-03-31T01:07:41.016Z,5.83
2018-03-31T01:10:08.268Z,9.50
2018-03-31T01:12:35.327Z,6.63
2018-03-31T01:15:02.405Z,7.27
2018-03-31T01:17:29.461Z,5.40
2018-03-31T01:19:56.557Z,5.77
2018-03-31T01:22:23.608Z,7.57
2018-03-31T01:24:51.168Z,10.20
2018-03-31T01:27:18.237Z,10.40
2018-03-31T01:29:45.366Z,8.83
2018-03-31T01:32:12.432Z,7.43
2018-03-31T01:34:39.503Z,7.67
2018-03-31T01:37:06.821Z,7.50
2018-03-31T01:39:33.921Z,9.00
2018-03-31T01:42:00.967Z,11.83
2018-03-31T01:44:28.040Z,5.77
2018-03-31T01:46:55.086Z,6.17
2018-03-31T01:49:22.358Z,4.57
2018-03-31T01:51:49.407Z,5.53
2018-03-31T01:54:16.522Z,5.50
2018-03-31T01:56:43.603Z,3.37
2018-03-31T01:59:10.658Z,5.37
2018-03-31T02:01:37.732Z,5.53
2018-03-31T02:04:04.873Z,6.67
2018-03-31T02:06:31.965Z,3.93
2018-03-31T02:08:59.007Z,6.30
2018-03-31T02:11:26.095Z,4.60
2018-03-31T02:13:53.164Z,4.40
2018-03-31T02:16:20.222Z,5.03
2018-03-31T02:18:47.288Z,4.50
2018-03-31T02:21:14.356Z,5.60
2018-03-31T02:23:41.441Z,5.57
2018-03-31T02:26:08.492Z,3.70
2018-03-31T02:28:35.560Z,4.73
2018-03-31T02:31:02.625Z,3.90
2018-03-31T02:33:29.669Z,4.57
2018-03-31T02:35:56.745Z,5.17
2018-03-31T02:38:23.803Z,3.93
2018-03-31T02:40:50.995Z,6.93
2018-03-31T02:43:18.042Z,3.53
2018-03-31T02:45:45.091Z,3.87
2018-03-31T02:48:12.167Z,3.20
2018-03-31T02:50:39.217Z,2.93
2018-03-31T02:53:06.350Z,3.10
2018-03-31T02:55:33.404Z,5.30
2018-03-31T02:58:00.750Z,6.43
2018-03-31T03:00:27.809Z,5.97
2018-03-31T03:02:54.856Z,3.40
2018-03-31T03:05:21.934Z,3.27
2018-03-31T03:07:48.988Z,5.10
2018-03-31T03:10:16.061Z,8.57
2018-03-31T03:12:43.136Z,2.90
2018-03-31T03:15:10.475Z,4.30
2018-03-31T03:17:37.791Z,7.90
2018-03-31T03:20:04.840Z,4.70
2018-03-31T03:22:31.915Z,4.60
2018-03-31T03:24:58.960Z,7.47
2018-03-31T03:27:26.036Z,10.97
2018-03-31T03:29:53.093Z,4.50
2018-03-31T03:32:20.323Z,14.83
2018-03-31T03:34:47.373Z,9.63
2018-03-31T03:37:14.438Z,8.90
2018-03-31T03:39:41.508Z,6.53
2018-03-31T03:42:08.574Z,8.00
2018-03-31T03:44:35.648Z,10.07
2018-03-31T03:47:02.708Z,7.63
2018-03-31T03:49:30.072Z,9.00
2018-03-31T03:51:57.085Z,9.10
2018-03-31T03:54:24.129Z,9.60
2018-03-31T03:56:51.205Z,10.03
2018-03-31T03:59:18.257Z,11.53
2018-03-31T04:01:45.329Z,9.27
2018-03-31T04:04:12.384Z,10.00
2018-03-31T04:06:39.692Z,9.30
2018-03-31T04:09:06.736Z,9.90
2018-03-31T04:11:33.782Z,7.57
2018-03-31T04:14:00.853Z,10.60
2018-03-31T04:16:27.894Z,8.57
2018-03-31T04:18:54.952Z,7.63
2018-03-31T04:21:21.995Z,9.50
2018-03-31T04:23:49.264Z,12.83
2018-03-31T04:26:16.307Z,15.90
2018-03-31T04:28:43.353Z,9.20
2018-03-31T04:31:10.429Z,14.07
2018-03-31T04:33:37.484Z,8.90
2018-03-31T04:36:04.550Z,12.77
2018-03-31T04:38:31.596Z,10.37
2018-03-31T04:40:58.796Z,13.57
2018-03-31T04:43:25.843Z,13.87
2018-03-31T04:45:52.884Z,16.00
2018-03-31T04:48:19.995Z,11.50
2018-03-31T04:50:47.036Z,14.00
2018-03-31T04:53:14.108Z,11.50
2018-03-31T04:55:41.157Z,13.00
2018-03-31T04:58:08.232Z,11.60
2018-03-31T05:00:35.284Z,13.20
2018-03-31T05:03:02.339Z,11.33
2018-03-31T05:05:29.439Z,13.90
2018-03-31T05:07:56.495Z,14.20
2018-03-31T05:10:23.570Z,11.70
2018-03-31T05:12:50.620Z,15.07
2018-03-31T05:15:17.979Z,14.00
2018-03-31T05:17:45.030Z,13.80
2018-03-31T05:20:12.088Z,20.07
2018-03-31T05:22:39.160Z,11.67
2018-03-31T05:25:06.209Z,21.10
2018-03-31T05:27:33.275Z,20.23
2018-03-31T05:30:00.325Z,15.37
2018-03-31T05:32:27.531Z,16.53
2018-03-31T05:34:54.598Z,14.87
2018-03-31T05:37:21.652Z,16.90
2018-03-31T05:39:48.733Z,13.37
2018-03-31T05:42:15.784Z,16.47
2018-03-31T05:44:42.859Z,18.43
2018-03-31T05:47:09.916Z,13.87
2018-03-31T05:49:37.051Z,14.43
2018-03-31T05:52:04.085Z,16.73
2018-03-31T05:54:31.135Z,21.73
2018-03-31T05:56:58.215Z,22.17
2018-03-31T05:59:25.322Z,16.53
2018-03-31T06:01:52.400Z,19.30
2018-03-31T06:04:19.455Z,15.53
2018-03-31T06:06:46.805Z,17.00
2018-03-31T06:09:13.851Z,13.20
2018-03-31T06:11:40.899Z,19.20
2018-03-31T06:14:07.976Z,16.63
2018-03-31T06:16:35.028Z,17.23
2018-03-31T06:19:02.101Z,14.07
2018-03-31T06:21:29.160Z,15.53
2018-03-31T06:23:56.236Z,15.10
2018-03-31T06:26:23.289Z,19.87
2018-03-31T06:28:50.351Z,16.77
2018-03-31T06:31:17.427Z,16.13
2018-03-31T06:33:44.488Z,14.90
2018-03-31T06:36:11.560Z,15.93
2018-03-31T06:38:38.617Z,13.20
2018-03-31T06:41:06.218Z,19.50
2018-03-31T06:43:33.263Z,16.60
2018-03-31T06:46:00.314Z,18.90
2018-03-31T06:48:27.385Z,16.10
2018-03-31T06:50:54.444Z,17.63
2018-03-31T06:53:21.513Z,12.50
2018-03-31T06:55:48.565Z,15.03
2018-03-31T06:58:15.675Z,14.63
2018-03-31T07:00:42.724Z,17.13
2018-03-31T07:03:09.783Z,13.00
2018-03-31T07:05:36.852Z,13.53
2018-03-31T07:08:03.901Z,13.83
2018-03-31T07:10:31.487Z,16.77
2018-03-31T07:12:58.544Z,15.60
2018-03-31T07:15:25.840Z,14.80
2018-03-31T07:17:52.850Z,19.53
2018-03-31T07:20:19.905Z,15.70
2018-03-31T07:22:46.978Z,14.40
2018-03-31T07:25:14.027Z,12.83
2018-03-31T07:27:41.110Z,17.50
2018-03-31T07:30:08.163Z,16.40
2018-03-31T07:32:35.428Z,12.07
2018-03-31T07:35:02.476Z,12.83
2018-03-31T07:37:29.523Z,15.97
2018-03-31T07:39:56.599Z,15.23
2018-03-31T07:42:23.656Z,14.43
2018-03-31T07:44:50.737Z,14.07
2018-03-31T07:47:17.807Z,16.57
2018-03-31T07:49:44.900Z,15.70
2018-03-31T07:52:11.958Z,16.07
2018-03-31T07:54:39.077Z,19.40
2018-03-31T07:57:06.153Z,14.80
2018-03-31T07:59:33.204Z,20.40
2018-03-31T08:02:00.273Z,13.27
2018-03-31T08:04:27.370Z,14.50
2018-03-31T08:06:54.612Z,13.27
2018-03-31T08:09:21.671Z,16.50
2018-03-31T08:11:48.723Z,15.73
2018-03-31T08:14:15.793Z,17.00
2018-03-31T08:16:42.900Z,13.83
2018-03-31T08:19:11.491Z,14.10
2018-03-31T08:21:38.543Z,13.30
2018-03-31T08:24:05.641Z,22.00
2018-03-31T08:26:32.697Z,14.50
2018-03-31T08:28:59.758Z,13.73
2018-03-31T08:31:26.832Z,18.47
2018-03-31T08:33:53.881Z,12.10
2018-03-31T08:36:20.956Z,16.13
2018-03-31T08:38:48.016Z,10.30
2018-03-31T08:41:15.541Z,18.80
2018-03-31T08:43:42.593Z,14.83
2018-03-31T08:46:09.644Z,11.00
2018-03-31T08:48:36.717Z,12.70
2018-03-31T08:51:03.765Z,11.37
2018-03-31T08:53:30.835Z,12.40
2018-03-31T08:55:57.892Z,17.53
2018-03-31T08:58:25.195Z,8.63
2018-03-31T09:00:52.243Z,15.80
2018-03-31T09:03:19.308Z,13.27
2018-03-31T09:05:46.380Z,10.73
2018-03-31T09:08:13.428Z,8.57
2018-03-31T09:10:40.496Z,8.40
2018-03-31T09:13:07.540Z,13.87
2018-03-31T09:15:34.601Z,13.00
2018-03-31T09:18:01.685Z,14.50
2018-03-31T09:20:28.745Z,9.57
2018-03-31T09:22:55.836Z,8.13
2018-03-31T09:25:22.892Z,11.60
2018-03-31T09:27:49.936Z,9.93
2018-03-31T09:30:17.003Z,9.17
2018-03-31T09:32:44.056Z,16.53
2018-03-31T09:35:11.312Z,12.77
2018-03-31T09:37:38.350Z,9.03
2018-03-31T09:40:05.416Z,11.40
2018-03-31T09:42:32.494Z,15.00
2018-03-31T09:44:59.550Z,9.50
2018-03-31T09:47:26.616Z,11.67
2018-03-31T09:49:53.676Z,11.57
2018-03-31T09:52:20.772Z,10.83
2018-03-31T09:54:47.811Z,9.20
2018-03-31T09:57:14.863Z,13.80
2018-03-31T09:59:41.933Z,8.60
2018-03-31T10:02:08.985Z,12.30
2018-03-31T10:04:36.061Z,6.73
2018-03-31T10:07:03.107Z,7.93
2018-03-31T10:09:30.185Z,14.73
2018-03-31T10:11:57.249Z,10.10
2018-03-31T10:14:24.295Z,9.60
2018-03-31T10:16:51.466Z,8.97
2018-03-31T10:19:18.531Z,8.23
2018-03-31T10:21:45.756Z,38.07
2018-03-31T10:24:12.807Z,9.67
2018-03-31T10:26:39.895Z,9.77
2018-03-31T10:29:06.955Z,7.57
2018-03-31T10:31:34.012Z,8.60
2018-03-31T10:34:01.088Z,10.07
2018-03-31T10:36:28.144Z,10.33
2018-03-31T10:38:55.234Z,9.27
2018-03-31T10:41:22.284Z,9.03
2018-03-31T10:43:49.359Z,10.67
2018-03-31T10:46:16.413Z,8.83
2018-03-31T10:48:43.474Z,18.13
2018-03-31T10:51:10.544Z,10.87
2018-03-31T10:53:37.595Z,7.80
2018-03-31T10:56:04.665Z,9.57
2018-03-31T10:58:31.716Z,17.67
2018-03-31T11:00:58.812Z,7.80
2018-03-31T11:03:25.873Z,10.07
2018-03-31T11:05:52.928Z,10.63
2018-03-31T11:08:20.008Z,9.70
2018-03-31T11:10:47.060Z,13.53
2018-03-31T11:13:14.128Z,11.50
2018-03-31T11:15:41.177Z,6.60
2018-03-31T11:18:09.185Z,8.83
2018-03-31T11:20:36.239Z,9.27
2018-03-31T11:23:03.296Z,7.67
2018-03-31T11:25:30.364Z,7.50
2018-03-31T11:27:57.422Z,13.03
2018-03-31T11:30:24.495Z,7.40
2018-03-31T11:32:51.793Z,9.23
2018-03-31T11:35:18.900Z,14.57
2018-03-31T11:37:45.960Z,18.30
2018-03-31T11:40:13.003Z,8.67
2018-03-31T11:42:40.068Z,7.20
2018-03-31T11:45:07.116Z,6.90
2018-03-31T11:47:34.194Z,7.53
2018-03-31T11:50:01.298Z,30.67
2018-03-31T11:52:28.385Z,9.07
2018-03-31T11:54:55.446Z,9.53
2018-03-31T11:57:22.505Z,12.03
2018-03-31T11:59:49.596Z,6.00
2018-03-31T12:02:16.648Z,7.23
2018-03-31T12:04:43.728Z,6.50
2018-03-31T12:07:10.896Z,7.20
2018-03-31T12:09:38.116Z,7.23
2018-03-31T12:12:05.167Z,4.13
2018-03-31T12:14:32.223Z,5.07
2018-03-31T12:16:59.292Z,5.83
2018-03-31T12:19:26.337Z,6.33
2018-03-31T12:21:53.416Z,7.57
2018-03-31T12:24:20.464Z,5.93
2018-03-31T12:26:47.751Z,7.70
2018-03-31T12:29:14.817Z,6.80
2018-03-31T12:31:41.866Z,7.50
2018-03-31T12:34:09.163Z,6.80
2018-03-31T12:36:36.236Z,6.20
2018-03-31T12:39:03.316Z,5.30
2018-03-31T12:41:30.429Z,13.43
2018-03-31T12:43:57.580Z,5.40
2018-03-31T12:46:24.634Z,5.43
2018-03-31T12:48:51.684Z,4.77
2018-03-31T12:51:18.761Z,6.77
2018-03-31T12:53:45.816Z,4.83
2018-03-31T12:56:12.892Z,4.33
2018-03-31T12:58:39.952Z,3.77
2018-03-31T13:01:07.021Z,8.20
2018-03-31T13:03:34.076Z,6.00
2018-03-31T13:06:01.128Z,4.20
2018-03-31T13:08:28.208Z,4.73
2018-03-31T13:10:55.260Z,6.70
2018-03-31T13:13:22.357Z,3.50
2018-03-31T13:15:49.410Z,3.17
2018-03-31T13:18:16.779Z,4.73
2018-03-31T13:20:43.847Z,10.80
2018-03-31T13:23:10.896Z,6.77
2018-03-31T13:25:37.967Z,5.73
2018-03-31T13:28:05.024Z,5.60
2018-03-31T13:30:32.100Z,8.63
2018-03-31T13:32:59.151Z,6.60
2018-03-31T13:35:26.244Z,6.40
2018-03-31T13:37:53.377Z,6.33
2018-03-31T13:40:20.425Z,8.47
2018-03-31T13:42:47.513Z,11.20
2018-03-31T13:45:14.568Z,5.73
2018-03-31T13:47:41.642Z,7.63
2018-03-31T13:50:08.688Z,7.37
2018-03-31T13:52:35.954Z,7.80
2018-03-31T13:55:03.039Z,8.23
2018-03-31T13:57:30.096Z,13.00
2018-03-31T13:59:57.177Z,7.50
2018-03-31T14:02:24.256Z,7.73
2018-03-31T14:04:51.813Z,7.03
2018-03-31T14:07:18.867Z,4.47
2018-03-31T14:09:45.917Z,6.97
2018-03-31T14:12:13.067Z,6.77
2018-03-31T14:14:40.123Z,5.87
2018-03-31T14:17:07.212Z,6.07
2018-03-31T14:19:34.258Z,6.10
2018-03-31T14:22:01.312Z,9.27
2018-03-31T14:24:28.385Z,8.93
2018-03-31T14:26:55.438Z,10.87
2018-03-31T14:29:22.611Z,8.80
2018-03-31T14:31:49.661Z,6.93
2018-03-31T14:34:16.744Z,8.37
2018-03-31T14:36:43.819Z,8.50
2018-03-31T14:39:10.877Z,9.50
2018-03-31T14:41:37.950Z,8.03
2018-03-31T14:44:04.996Z,6.03
2018-03-31T14:46:32.348Z,5.83
2018-03-31T14:48:59.455Z,5.93
2018-03-31T14:51:26.492Z,4.30
2018-03-31T14:53:53.576Z,6.17
2018-03-31T14:56:20.654Z,4.93
2018-03-31T14:58:47.774Z,6.83
2018-03-31T15:01:14.839Z,4.60
2018-03-31T15:03:42.188Z,3.27
2018-03-31T15:06:09.244Z,5.00
2018-03-31T15:08:36.295Z,6.23
2018-03-31T15:11:03.366Z,5.20
2018-03-31T15:13:30.424Z,7.20
2018-03-31T15:15:57.541Z,5.83
2018-03-31T15:18:24.593Z,5.13
2018-03-31T15:20:51.811Z,5.70
2018-03-31T15:23:18.869Z,6.07
2018-03-31T15:25:45.919Z,7.07
2018-03-31T15:28:12.999Z,8.70
2018-03-31T15:30:40.057Z,8.13
2018-03-31T15:33:07.129Z,6.60
2018-03-31T15:35:34.190Z,8.13
2018-03-31T15:38:01.292Z,6.77
2018-03-31T15:40:28.345Z,7.60
2018-03-31T15:42:55.401Z,7.70
2018-03-31T15:45:24.132Z,7.70
2018-03-31T15:47:51.199Z,5.63
2018-03-31T15:50:18.276Z,5.77
2018-03-31T15:52:45.334Z,8.00
2018-03-31T15:55:12.922Z,5.87
2018-03-31T15:57:40.017Z,5.90
2018-03-31T16:00:07.066Z,4.80
2018-03-31T16:02:34.151Z,6.73
2018-03-31T16:05:01.213Z,6.80
2018-03-31T16:07:28.295Z,13.67
2018-03-31T16:09:55.339Z,6.20
2018-03-31T16:12:22.419Z,5.63
2018-03-31T16:14:49.516Z,7.47
2018-03-31T16:17:16.974Z,10.30
2018-03-31T16:19:44.051Z,7.23
2018-03-31T16:22:11.099Z,9.23
2018-03-31T16:24:38.179Z,9.80
2018-03-31T16:27:05.228Z,8.70
2018-03-31T16:29:32.656Z,8.07
2018-03-31T16:31:59.717Z,6.53
2018-03-31T16:34:26.765Z,5.23
2018-03-31T16:36:53.909Z,8.03
2018-03-31T16:39:20.959Z,6.50
2018-03-31T16:41:48.037Z,3.87
2018-03-31T16:44:15.089Z,6.60
2018-03-31T16:46:42.521Z,4.90
2018-03-31T16:49:09.597Z,5.97
2018-03-31T16:51:36.648Z,5.83
2018-03-31T16:54:03.952Z,6.17
2018-03-31T16:56:31.000Z,7.63
2018-03-31T16:58:58.071Z,7.73
2018-03-31T17:01:25.137Z,8.10
2018-03-31T17:03:52.373Z,6.33
2018-03-31T17:06:19.427Z,7.80
2018-03-31T17:08:46.509Z,8.10
2018-03-31T17:11:13.580Z,8.60
2018-03-31T17:13:40.632Z,10.20
2018-03-31T17:16:07.702Z,8.90
2018-03-31T17:18:34.761Z,10.63
2018-03-31T17:21:01.868Z,9.80
2018-03-31T17:23:28.929Z,9.63
2018-03-31T17:25:56.576Z,9.10
2018-03-31T17:28:23.653Z,10.50
2018-03-31T17:30:50.696Z,11.60
2018-03-31T17:33:17.776Z,10.63
2018-03-31T17:35:44.829Z,9.03
2018-03-31T17:38:11.877Z,9.60
2018-03-31T17:40:38.958Z,9.83
2018-03-31T17:43:06.006Z,11.03
2018-03-31T17:45:33.300Z,11.50
2018-03-31T17:48:00.364Z,7.80
2018-03-31T17:50:27.419Z,13.20
2018-03-31T17:52:54.487Z,8.50
2018-03-31T17:55:21.561Z,9.47
2018-03-31T17:57:48.732Z,16.00
2018-03-31T18:00:15.801Z,10.73
2018-03-31T18:02:43.132Z,12.73
2018-03-31T18:05:10.251Z,11.93
2018-03-31T18:07:37.356Z,12.80
2018-03-31T18:10:04.483Z,11.03
2018-03-31T18:12:31.601Z,16.03
2018-03-31T18:14:58.713Z,12.87
2018-03-31T18:17:25.762Z,10.07
2018-03-31T18:19:52.826Z,12.13
2018-03-31T18:22:20.013Z,12.60
2018-03-31T18:24:47.079Z,15.33
2018-03-31T18:27:14.150Z,10.87
2018-03-31T18:29:41.211Z,14.03
2018-03-31T18:32:08.429Z,16.23
2018-03-31T18:34:35.497Z,16.10
2018-03-31T18:37:02.561Z,12.53
2018-03-31T18:39:29.625Z,18.93
2018-03-31T18:41:56.670Z,11.67
2018-03-31T18:44:23.758Z,18.20
2018-03-31T18:46:50.813Z,11.90
2018-03-31T18:49:17.929Z,13.10
2018-03-31T18:51:44.993Z,13.77
2018-03-31T18:54:12.044Z,18.77
2018-03-31T18:56:39.109Z,14.87
2018-03-31T18:59:06.160Z,13.17
2018-03-31T19:01:33.260Z,14.17
2018-03-31T19:04:00.314Z,16.37
2018-03-31T19:06:27.512Z,15.83
2018-03-31T19:08:54.571Z,15.63
2018-03-31T19:11:21.630Z,17.10
2018-03-31T19:13:48.849Z,20.00
2018-03-31T19:16:15.908Z,20.63
2018-03-31T19:18:42.985Z,16.03
2018-03-31T19:21:10.039Z,14.40
2018-03-31T19:23:37.127Z,15.20
2018-03-31T19:26:04.172Z,15.40
2018-03-31T19:28:31.244Z,10.30
2018-03-31T19:30:58.301Z,14.13
2018-03-31T19:33:25.372Z,14.27
2018-03-31T19:35:57.912Z,17.67
2018-03-31T19:38:25.005Z,15.10
2018-03-31T19:40:52.059Z,14.07
2018-03-31T19:43:19.134Z,16.47
2018-03-31T19:45:46.209Z,20.30
2018-03-31T19:48:13.262Z,19.70
2018-03-31T19:50:40.347Z,22.03
2018-03-31T19:53:07.684Z,21.13
2018-03-31T19:55:34.782Z,19.73
2018-03-31T19:58:01.839Z,24.73
2018-03-31T20:00:28.897Z,16.23
2018-03-31T20:02:55.979Z,16.00
2018-03-31T20:05:23.027Z,19.17
2018-03-31T20:07:50.098Z,18.93
2018-03-31T20:10:17.177Z,19.67
2018-03-31T20:12:44.457Z,16.97
2018-03-31T20:15:11.510Z,18.43
2018-03-31T20:17:38.565Z,17.80
2018-03-31T20:20:05.648Z,16.60
2018-03-31T20:22:32.695Z,16.70
2018-03-31T20:24:59.777Z,16.70
2018-03-31T20:27:26.837Z,16.07
2018-03-31T20:29:54.316Z,21.53
2018-03-31T20:32:21.384Z,22.87
2018-03-31T20:34:48.438Z,26.07
2018-03-31T20:37:15.516Z,19.93
2018-03-31T20:39:42.571Z,13.90
2018-03-31T20:42:09.648Z,15.47
2018-03-31T20:44:36.708Z,23.70
2018-03-31T20:47:03.797Z,16.43
2018-03-31T20:49:30.850Z,18.43
2018-03-31T20:51:57.910Z,15.27
2018-03-31T20:54:24.993Z,24.10
2018-03-31T20:56:52.049Z,17.27
2018-03-31T20:59:19.124Z,18.10
2018-03-31T21:01:46.249Z,18.20
2018-03-31T21:04:13.342Z,21.57
2018-03-31T21:06:40.392Z,21.40
2018-03-31T21:09:07.453Z,21.63
2018-03-31T21:11:34.544Z,26.50
2018-03-31T21:14:01.609Z,22.43
2018-03-31T21:16:28.740Z,20.40
2018-03-31T21:18:55.791Z,24.93
2018-03-31T21:21:22.875Z,28.20
2018-03-31T21:23:49.934Z,24.37
2018-03-31T21:26:17.002Z,18.37
2018-03-31T21:28:44.183Z,21.50
2018-03-31T21:31:12.255Z,33.13
2018-03-31T21:33:39.342Z,30.60
2018-03-31T21:36:06.398Z,32.40
2018-03-31T21:38:33.800Z,37.03
2018-03-31T21:41:00.860Z,30.80
2018-03-31T21:43:27.909Z,47.13
2018-03-31T21:45:54.982Z,32.53
2018-03-31T21:48:22.052Z,118.20
2018-03-31T21:50:49.134Z,106.87
2018-03-31T21:53:16.428Z,94.53
2018-03-31T21:55:43.757Z,56.03
2018-03-31T21:58:10.837Z,44.57
2018-03-31T22:00:37.893Z,44.87
2018-03-31T22:03:04.964Z,23.03
2018-03-31T22:05:32.024Z,19.07
2018-03-31T22:07:59.103Z,20.97
2018-03-31T22:10:26.155Z,22.30
2018-03-31T22:12:53.439Z,37.23
2018-03-31T22:15:25.892Z,38.63
2018-03-31T22:17:52.968Z,34.60
2018-03-31T22:20:20.051Z,39.67
2018-03-31T22:22:47.108Z,28.70
2018-03-31T22:25:14.194Z,40.00
2018-03-31T22:27:41.323Z,38.17
2018-03-31T22:30:08.395Z,47.13
2018-03-31T22:32:35.736Z,48.90
2018-03-31T22:35:02.969Z,30.70
2018-03-31T22:37:30.033Z,23.93
2018-03-31T22:39:57.091Z,29.27
2018-03-31T22:42:24.165Z,36.20
2018-03-31T22:44:51.220Z,76.30
2018-03-31T22:47:18.301Z,62.70
2018-03-31T22:49:45.352Z,79.83
2018-03-31T22:52:12.580Z,60.70
2018-03-31T22:54:39.636Z,42.73
2018-03-31T22:57:06.691Z,44.63
2018-03-31T22:59:33.780Z,33.60
2018-03-31T23:02:00.832Z,56.57
2018-03-31T23:04:27.946Z,45.83
2018-03-31T23:06:55.013Z,39.43
2018-03-31T23:09:22.399Z,23.03
2018-03-31T23:11:49.512Z,259.67
2018-03-31T23:14:16.574Z,136.40
2018-03-31T23:16:43.651Z,99.77
2018-03-31T23:19:10.715Z,55.37
2018-03-31T23:21:37.798Z,35.73
2018-03-31T23:24:05.206Z,42.97
2018-03-31T23:26:32.289Z,26.07
2018-03-31T23:28:59.377Z,22.57
2018-03-31T23:31:26.439Z,18.20
2018-03-31T23:33:53.511Z,22.30
2018-03-31T23:36:20.560Z,16.27
2018-03-31T23:38:47.858Z,18.57
2018-03-31T23:41:14.928Z,18.90
2018-03-31T23:43:41.996Z,16.10
2018-03-31T23:46:09.100Z,36.17
2018-03-31T23:48:36.164Z,23.60
2018-03-31T23:51:03.456Z,18.83
2018-03-31T23:53:30.523Z,25.83
2018-03-31T23:55:58.928Z,25.57
2018-03-31T23:58:26.006Z,16.50
